sensor_id;sensor_type;location;lat;lon;timestamp;temperature;humidity
25688;DHT22;17407;51.120;3.702;2022-12-29T00:02:03;12.10;99.90
25688;DHT22;17407;51.120;3.702;2022-12-29T00:04:29;12.10;99.90
25688;DHT22;17407;51.120;3.702;2022-12-29T00:06:54;12.20;99.90
25688;DHT22;17407;51.120;3.702;2022-12-29T00:09:20;12.30;99.90
25688;DHT22;17407;51.120;3.702;2022-12-29T00:11:46;12.40;99.90
25688;DHT22;17407;51.120;3.702;2022-12-29T00:14:12;12.30;99.90
25688;DHT22;17407;51.120;3.702;2022-12-29T00:16:56;12.40;99.90
25688;DHT22;17407;51.120;3.702;2022-12-29T00:19:22;12.30;99.90
25688;DHT22;17407;51.120;3.702;2022-12-29T00:22:10;12.30;99.90
25688;DHT22;17407;51.120;3.702;2022-12-29T00:24:54;12.40;99.90
25688;DHT22;17407;51.120;3.702;2022-12-29T00:27:39;12.40;99.90
25688;DHT22;17407;51.120;3.702;2022-12-29T00:30:24;12.30;99.90
25688;DHT22;17407;51.120;3.702;2022-12-29T00:36:01;12.30;99.90
25688;DHT22;17407;51.120;3.702;2022-12-29T00:38:28;12.30;99.90
25688;DHT22;17407;51.120;3.702;2022-12-29T00:41:13;12.30;99.90
25688;DHT22;17407;51.120;3.702;2022-12-29T00:43:57;12.40;99.90
25688;DHT22;17407;51.120;3.702;2022-12-29T00:46:38;12.40;99.90
25688;DHT22;17407;51.120;3.702;2022-12-29T00:49:05;12.50;99.90
25688;DHT22;17407;51.120;3.702;2022-12-29T00:51:51;12.50;99.90
25688;DHT22;17407;51.120;3.702;2022-12-29T00:54:17;12.50;99.90
25688;DHT22;17407;51.120;3.702;2022-12-29T00:56:43;12.40;99.90
25688;DHT22;17407;51.120;3.702;2022-12-29T00:59:10;12.60;99.90
25688;DHT22;17407;51.120;3.702;2022-12-29T01:01:37;12.50;99.90
25688;DHT22;17407;51.120;3.702;2022-12-29T01:04:04;12.60;99.90
25688;DHT22;17407;51.120;3.702;2022-12-29T01:06:33;12.50;99.90
25688;DHT22;17407;51.120;3.702;2022-12-29T01:09:00;12.60;99.90
25688;DHT22;17407;51.120;3.702;2022-12-29T01:11:44;12.50;99.90
25688;DHT22;17407;51.120;3.702;2022-12-29T01:14:10;12.60;99.90
25688;DHT22;17407;51.120;3.702;2022-12-29T01:16:36;12.50;99.90
25688;DHT22;17407;51.120;3.702;2022-12-29T01:19:02;12.60;99.90
25688;DHT22;17407;51.120;3.702;2022-12-29T01:21:28;12.50;99.90
25688;DHT22;17407;51.120;3.702;2022-12-29T01:23:53;12.50;99.90
25688;DHT22;17407;51.120;3.702;2022-12-29T01:26:19;12.70;99.90
25688;DHT22;17407;51.120;3.702;2022-12-29T01:28:44;12.60;99.90
25688;DHT22;17407;51.120;3.702;2022-12-29T01:31:11;12.50;99.90
25688;DHT22;17407;51.120;3.702;2022-12-29T01:33:38;12.60;99.90
25688;DHT22;17407;51.120;3.702;2022-12-29T01:36:06;12.50;99.90
25688;DHT22;17407;51.120;3.702;2022-12-29T01:38:32;12.60;99.90
25688;DHT22;17407;51.120;3.702;2022-12-29T01:40:58;12.70;99.90
25688;DHT22;17407;51.120;3.702;2022-12-29T01:44:02;12.70;99.90
25688;DHT22;17407;51.120;3.702;2022-12-29T01:46:39;12.80;99.90
25688;DHT22;17407;51.120;3.702;2022-12-29T01:49:16;12.70;99.90
25688;DHT22;17407;51.120;3.702;2022-12-29T01:51:51;12.50;99.90
25688;DHT22;17407;51.120;3.702;2022-12-29T01:54:24;12.50;99.90
25688;DHT22;17407;51.120;3.702;2022-12-29T01:56:52;12.40;99.90
25688;DHT22;17407;51.120;3.702;2022-12-29T01:59:22;12.60;99.90
25688;DHT22;17407;51.120;3.702;2022-12-29T02:01:50;12.70;99.90
25688;DHT22;17407;51.120;3.702;2022-12-29T02:04:17;12.70;99.90
25688;DHT22;17407;51.120;3.702;2022-12-29T02:07:06;12.70;99.90
25688;DHT22;17407;51.120;3.702;2022-12-29T02:09:33;12.70;99.90
25688;DHT22;17407;51.120;3.702;2022-12-29T02:11:59;12.80;99.90
25688;DHT22;17407;51.120;3.702;2022-12-29T02:14:26;12.70;99.90
25688;DHT22;17407;51.120;3.702;2022-12-29T02:27:52;12.60;99.90
25688;DHT22;17407;51.120;3.702;2022-12-29T02:31:01;12.50;99.90
25688;DHT22;17407;51.120;3.702;2022-12-29T02:36:20;12.70;99.90
25688;DHT22;17407;51.120;3.702;2022-12-29T02:41:32;12.50;99.90
25688;DHT22;17407;51.120;3.702;2022-12-29T02:44:12;12.40;99.90
25688;DHT22;17407;51.120;3.702;2022-12-29T02:46:49;12.50;99.90
25688;DHT22;17407;51.120;3.702;2022-12-29T02:49:20;12.50;99.90
25688;DHT22;17407;51.120;3.702;2022-12-29T02:52:06;12.60;99.90
25688;DHT22;17407;51.120;3.702;2022-12-29T02:54:36;12.50;99.90
25688;DHT22;17407;51.120;3.702;2022-12-29T03:00:08;12.40;99.90
25688;DHT22;17407;51.120;3.702;2022-12-29T03:10:55;12.10;99.90
25688;DHT22;17407;51.120;3.702;2022-12-29T03:19:25;11.90;99.90
25688;DHT22;17407;51.120;3.702;2022-12-29T03:22:05;11.70;99.90
25688;DHT22;17407;51.120;3.702;2022-12-29T03:24:54;11.70;99.90
25688;DHT22;17407;51.120;3.702;2022-12-29T03:27:26;11.60;99.90
25688;DHT22;17407;51.120;3.702;2022-12-29T03:29:57;11.50;99.90
25688;DHT22;17407;51.120;3.702;2022-12-29T03:32:28;11.40;99.90
25688;DHT22;17407;51.120;3.702;2022-12-29T03:34:56;11.40;99.90
25688;DHT22;17407;51.120;3.702;2022-12-29T03:37:32;11.40;99.90
25688;DHT22;17407;51.120;3.702;2022-12-29T03:39:59;11.40;99.90
25688;DHT22;17407;51.120;3.702;2022-12-29T03:42:28;11.60;99.90
25688;DHT22;17407;51.120;3.702;2022-12-29T03:44:56;11.60;99.90
25688;DHT22;17407;51.120;3.702;2022-12-29T03:47:23;11.60;99.90
25688;DHT22;17407;51.120;3.702;2022-12-29T03:49:49;11.60;99.90
25688;DHT22;17407;51.120;3.702;2022-12-29T03:52:15;11.60;99.90
25688;DHT22;17407;51.120;3.702;2022-12-29T03:54:41;11.60;99.90
25688;DHT22;17407;51.120;3.702;2022-12-29T03:57:08;11.70;99.90
25688;DHT22;17407;51.120;3.702;2022-12-29T03:59:34;11.70;99.90
25688;DHT22;17407;51.120;3.702;2022-12-29T04:01:59;11.70;99.90
25688;DHT22;17407;51.120;3.702;2022-12-29T04:04:25;11.70;99.90
25688;DHT22;17407;51.120;3.702;2022-12-29T04:06:51;11.70;99.90
25688;DHT22;17407;51.120;3.702;2022-12-29T04:09:16;11.70;99.90
25688;DHT22;17407;51.120;3.702;2022-12-29T04:11:42;11.90;99.90
25688;DHT22;17407;51.120;3.702;2022-12-29T04:14:08;11.90;99.90
25688;DHT22;17407;51.120;3.702;2022-12-29T04:16:33;11.80;99.90
25688;DHT22;17407;51.120;3.702;2022-12-29T04:19:01;11.80;99.90
25688;DHT22;17407;51.120;3.702;2022-12-29T04:21:27;11.70;99.90
25688;DHT22;17407;51.120;3.702;2022-12-29T04:23:53;11.70;99.90
25688;DHT22;17407;51.120;3.702;2022-12-29T04:26:19;11.70;99.90
25688;DHT22;17407;51.120;3.702;2022-12-29T04:28:44;11.70;99.90
25688;DHT22;17407;51.120;3.702;2022-12-29T04:31:10;11.70;99.90
25688;DHT22;17407;51.120;3.702;2022-12-29T04:33:35;11.80;99.90
25688;DHT22;17407;51.120;3.702;2022-12-29T04:36:01;11.70;99.90
25688;DHT22;17407;51.120;3.702;2022-12-29T04:38:27;11.60;99.90
25688;DHT22;17407;51.120;3.702;2022-12-29T04:40:52;11.60;99.90
25688;DHT22;17407;51.120;3.702;2022-12-29T04:43:18;11.50;99.90
25688;DHT22;17407;51.120;3.702;2022-12-29T04:45:47;11.50;99.90
25688;DHT22;17407;51.120;3.702;2022-12-29T04:48:14;11.60;99.90
25688;DHT22;17407;51.120;3.702;2022-12-29T04:50:40;11.60;99.90
25688;DHT22;17407;51.120;3.702;2022-12-29T04:53:07;11.60;99.90
25688;DHT22;17407;51.120;3.702;2022-12-29T04:55:32;11.70;99.90
25688;DHT22;17407;51.120;3.702;2022-12-29T04:57:58;11.50;99.90
25688;DHT22;17407;51.120;3.702;2022-12-29T05:00:24;11.50;99.90
25688;DHT22;17407;51.120;3.702;2022-12-29T05:02:50;11.50;99.90
25688;DHT22;17407;51.120;3.702;2022-12-29T05:05:17;11.60;99.90
25688;DHT22;17407;51.120;3.702;2022-12-29T05:07:43;11.60;99.90
25688;DHT22;17407;51.120;3.702;2022-12-29T05:10:09;11.60;99.90
25688;DHT22;17407;51.120;3.702;2022-12-29T05:12:36;11.70;99.90
25688;DHT22;17407;51.120;3.702;2022-12-29T05:15:03;11.80;99.90
25688;DHT22;17407;51.120;3.702;2022-12-29T05:17:29;11.60;99.90
25688;DHT22;17407;51.120;3.702;2022-12-29T05:19:54;11.60;99.90
25688;DHT22;17407;51.120;3.702;2022-12-29T05:22:20;11.50;99.90
25688;DHT22;17407;51.120;3.702;2022-12-29T05:24:46;11.60;99.90
25688;DHT22;17407;51.120;3.702;2022-12-29T05:27:12;11.50;99.90
25688;DHT22;17407;51.120;3.702;2022-12-29T05:29:37;11.50;99.90
25688;DHT22;17407;51.120;3.702;2022-12-29T05:32:03;11.50;99.90
25688;DHT22;17407;51.120;3.702;2022-12-29T05:34:29;11.40;99.90
25688;DHT22;17407;51.120;3.702;2022-12-29T05:36:55;11.40;99.90
25688;DHT22;17407;51.120;3.702;2022-12-29T05:39:20;11.50;99.90
25688;DHT22;17407;51.120;3.702;2022-12-29T05:41:46;11.50;99.90
25688;DHT22;17407;51.120;3.702;2022-12-29T05:44:12;11.50;99.90
25688;DHT22;17407;51.120;3.702;2022-12-29T05:46:38;11.50;99.90
25688;DHT22;17407;51.120;3.702;2022-12-29T05:49:04;11.50;99.90
25688;DHT22;17407;51.120;3.702;2022-12-29T05:51:30;11.50;99.90
25688;DHT22;17407;51.120;3.702;2022-12-29T05:53:56;11.60;99.90
25688;DHT22;17407;51.120;3.702;2022-12-29T05:56:22;11.60;99.90
25688;DHT22;17407;51.120;3.702;2022-12-29T05:58:47;11.60;99.90
25688;DHT22;17407;51.120;3.702;2022-12-29T06:01:13;11.60;99.90
25688;DHT22;17407;51.120;3.702;2022-12-29T06:03:39;11.50;99.90
25688;DHT22;17407;51.120;3.702;2022-12-29T06:06:04;11.60;99.90
25688;DHT22;17407;51.120;3.702;2022-12-29T06:08:30;11.70;99.90
25688;DHT22;17407;51.120;3.702;2022-12-29T06:10:56;11.70;99.90
25688;DHT22;17407;51.120;3.702;2022-12-29T06:13:22;11.60;99.90
25688;DHT22;17407;51.120;3.702;2022-12-29T06:15:50;11.50;99.90
25688;DHT22;17407;51.120;3.702;2022-12-29T06:18:16;11.50;99.90
25688;DHT22;17407;51.120;3.702;2022-12-29T06:20:42;11.50;99.90
25688;DHT22;17407;51.120;3.702;2022-12-29T06:23:07;11.60;99.90
25688;DHT22;17407;51.120;3.702;2022-12-29T06:25:33;11.60;99.90
25688;DHT22;17407;51.120;3.702;2022-12-29T06:28:01;11.70;99.90
25688;DHT22;17407;51.120;3.702;2022-12-29T06:30:27;11.60;99.90
25688;DHT22;17407;51.120;3.702;2022-12-29T06:32:52;11.50;99.90
25688;DHT22;17407;51.120;3.702;2022-12-29T06:35:20;11.50;99.90
25688;DHT22;17407;51.120;3.702;2022-12-29T06:37:47;11.60;99.90
25688;DHT22;17407;51.120;3.702;2022-12-29T06:40:13;11.70;99.90
25688;DHT22;17407;51.120;3.702;2022-12-29T06:42:39;11.50;99.90
25688;DHT22;17407;51.120;3.702;2022-12-29T06:45:05;11.30;99.90
25688;DHT22;17407;51.120;3.702;2022-12-29T06:47:31;11.20;99.90
25688;DHT22;17407;51.120;3.702;2022-12-29T06:49:56;10.90;99.90
25688;DHT22;17407;51.120;3.702;2022-12-29T06:52:22;10.80;99.90
25688;DHT22;17407;51.120;3.702;2022-12-29T06:54:49;10.80;99.90
25688;DHT22;17407;51.120;3.702;2022-12-29T06:57:15;10.80;99.90
25688;DHT22;17407;51.120;3.702;2022-12-29T06:59:40;10.90;99.90
25688;DHT22;17407;51.120;3.702;2022-12-29T07:02:06;10.80;99.90
25688;DHT22;17407;51.120;3.702;2022-12-29T07:04:32;10.80;99.90
25688;DHT22;17407;51.120;3.702;2022-12-29T07:06:58;10.70;99.90
25688;DHT22;17407;51.120;3.702;2022-12-29T07:09:24;10.80;99.90
25688;DHT22;17407;51.120;3.702;2022-12-29T07:11:49;10.80;99.90
25688;DHT22;17407;51.120;3.702;2022-12-29T07:14:15;11.00;99.90
25688;DHT22;17407;51.120;3.702;2022-12-29T07:16:41;11.00;99.90
25688;DHT22;17407;51.120;3.702;2022-12-29T07:19:07;11.00;99.90
25688;DHT22;17407;51.120;3.702;2022-12-29T07:21:32;11.10;99.90
25688;DHT22;17407;51.120;3.702;2022-12-29T07:23:58;11.00;99.90
25688;DHT22;17407;51.120;3.702;2022-12-29T07:26:24;11.20;99.90
25688;DHT22;17407;51.120;3.702;2022-12-29T07:28:49;11.20;99.90
25688;DHT22;17407;51.120;3.702;2022-12-29T07:31:17;11.20;99.90
25688;DHT22;17407;51.120;3.702;2022-12-29T07:33:44;11.30;99.90
25688;DHT22;17407;51.120;3.702;2022-12-29T07:36:11;11.20;99.90
25688;DHT22;17407;51.120;3.702;2022-12-29T07:38:37;11.20;99.90
25688;DHT22;17407;51.120;3.702;2022-12-29T07:41:03;11.30;99.90
25688;DHT22;17407;51.120;3.702;2022-12-29T07:43:28;11.30;99.90
25688;DHT22;17407;51.120;3.702;2022-12-29T07:45:54;11.30;99.90
25688;DHT22;17407;51.120;3.702;2022-12-29T07:48:21;11.40;99.90
25688;DHT22;17407;51.120;3.702;2022-12-29T07:50:47;11.30;99.90
25688;DHT22;17407;51.120;3.702;2022-12-29T07:53:12;11.40;99.90
25688;DHT22;17407;51.120;3.702;2022-12-29T07:55:38;11.30;99.90
25688;DHT22;17407;51.120;3.702;2022-12-29T07:58:04;11.30;99.90
25688;DHT22;17407;51.120;3.702;2022-12-29T08:00:29;11.30;99.90
25688;DHT22;17407;51.120;3.702;2022-12-29T08:02:55;11.40;99.90
25688;DHT22;17407;51.120;3.702;2022-12-29T08:05:21;11.30;99.90
25688;DHT22;17407;51.120;3.702;2022-12-29T08:07:47;11.30;99.90
25688;DHT22;17407;51.120;3.702;2022-12-29T08:10:13;11.30;99.90
25688;DHT22;17407;51.120;3.702;2022-12-29T08:12:39;11.20;99.90
25688;DHT22;17407;51.120;3.702;2022-12-29T08:15:07;11.20;99.90
25688;DHT22;17407;51.120;3.702;2022-12-29T08:17:33;11.00;99.90
25688;DHT22;17407;51.120;3.702;2022-12-29T08:19:59;11.10;99.90
25688;DHT22;17407;51.120;3.702;2022-12-29T08:22:25;11.00;99.90
25688;DHT22;17407;51.120;3.702;2022-12-29T08:24:51;10.80;99.90
25688;DHT22;17407;51.120;3.702;2022-12-29T08:27:17;10.70;99.90
25688;DHT22;17407;51.120;3.702;2022-12-29T08:29:43;10.70;99.90
25688;DHT22;17407;51.120;3.702;2022-12-29T08:32:09;10.50;99.90
25688;DHT22;17407;51.120;3.702;2022-12-29T08:34:34;10.60;99.90
25688;DHT22;17407;51.120;3.702;2022-12-29T08:37:00;10.60;99.90
25688;DHT22;17407;51.120;3.702;2022-12-29T08:39:26;10.70;99.90
25688;DHT22;17407;51.120;3.702;2022-12-29T08:41:52;10.70;99.90
25688;DHT22;17407;51.120;3.702;2022-12-29T08:44:18;10.70;99.90
25688;DHT22;17407;51.120;3.702;2022-12-29T08:46:43;10.60;99.90
25688;DHT22;17407;51.120;3.702;2022-12-29T08:49:09;10.50;99.90
25688;DHT22;17407;51.120;3.702;2022-12-29T08:51:34;10.50;99.90
25688;DHT22;17407;51.120;3.702;2022-12-29T08:54:00;10.40;99.90
25688;DHT22;17407;51.120;3.702;2022-12-29T08:56:27;10.50;99.90
25688;DHT22;17407;51.120;3.702;2022-12-29T08:58:52;10.50;99.90
25688;DHT22;17407;51.120;3.702;2022-12-29T09:01:19;10.50;99.90
25688;DHT22;17407;51.120;3.702;2022-12-29T09:03:45;10.30;99.90
25688;DHT22;17407;51.120;3.702;2022-12-29T09:06:11;10.30;99.90
25688;DHT22;17407;51.120;3.702;2022-12-29T09:08:36;10.40;99.90
25688;DHT22;17407;51.120;3.702;2022-12-29T09:11:20;10.50;99.90
25688;DHT22;17407;51.120;3.702;2022-12-29T09:13:46;10.40;99.90
25688;DHT22;17407;51.120;3.702;2022-12-29T09:16:12;10.30;99.90
25688;DHT22;17407;51.120;3.702;2022-12-29T09:18:39;10.30;99.90
25688;DHT22;17407;51.120;3.702;2022-12-29T09:21:06;10.30;99.90
25688;DHT22;17407;51.120;3.702;2022-12-29T09:23:33;10.40;99.90
25688;DHT22;17407;51.120;3.702;2022-12-29T09:25:58;10.40;99.90
25688;DHT22;17407;51.120;3.702;2022-12-29T09:28:24;10.50;99.90
25688;DHT22;17407;51.120;3.702;2022-12-29T09:30:50;10.40;99.90
25688;DHT22;17407;51.120;3.702;2022-12-29T09:33:16;10.40;99.90
25688;DHT22;17407;51.120;3.702;2022-12-29T09:35:50;10.50;99.90
25688;DHT22;17407;51.120;3.702;2022-12-29T09:38:16;10.60;99.90
25688;DHT22;17407;51.120;3.702;2022-12-29T09:40:45;10.60;99.90
25688;DHT22;17407;51.120;3.702;2022-12-29T09:48:47;10.70;99.90
25688;DHT22;17407;51.120;3.702;2022-12-29T09:51:17;10.50;99.90
25688;DHT22;17407;51.120;3.702;2022-12-29T09:53:53;10.50;99.90
25688;DHT22;17407;51.120;3.702;2022-12-29T09:56:23;10.60;99.90
25688;DHT22;17407;51.120;3.702;2022-12-29T09:58:51;10.50;99.90
25688;DHT22;17407;51.120;3.702;2022-12-29T10:01:49;10.60;99.90
25688;DHT22;17407;51.120;3.702;2022-12-29T10:04:17;10.60;99.90
25688;DHT22;17407;51.120;3.702;2022-12-29T10:07:09;10.60;99.90
25688;DHT22;17407;51.120;3.702;2022-12-29T10:09:50;10.60;99.90
25688;DHT22;17407;51.120;3.702;2022-12-29T10:15:37;10.70;99.90
25688;DHT22;17407;51.120;3.702;2022-12-29T10:21:05;10.70;99.90
25688;DHT22;17407;51.120;3.702;2022-12-29T10:23:43;10.70;99.90
25688;DHT22;17407;51.120;3.702;2022-12-29T10:26:15;10.70;99.90
25688;DHT22;17407;51.120;3.702;2022-12-29T10:28:48;10.80;99.90
25688;DHT22;17407;51.120;3.702;2022-12-29T10:31:23;10.80;99.90
25688;DHT22;17407;51.120;3.702;2022-12-29T10:33:51;11.00;99.90
25688;DHT22;17407;51.120;3.702;2022-12-29T10:36:38;11.00;99.90
25688;DHT22;17407;51.120;3.702;2022-12-29T10:39:16;10.90;99.90
25688;DHT22;17407;51.120;3.702;2022-12-29T10:42:42;11.10;99.90
25688;DHT22;17407;51.120;3.702;2022-12-29T10:45:00;11.20;99.90
25688;DHT22;17407;51.120;3.702;2022-12-29T10:47:35;11.20;99.90
25688;DHT22;17407;51.120;3.702;2022-12-29T10:50:03;11.30;99.90
25688;DHT22;17407;51.120;3.702;2022-12-29T10:52:31;11.20;99.90
25688;DHT22;17407;51.120;3.702;2022-12-29T10:55:11;11.30;99.90
25688;DHT22;17407;51.120;3.702;2022-12-29T10:57:42;11.30;99.90
25688;DHT22;17407;51.120;3.702;2022-12-29T11:00:18;11.10;99.90
25688;DHT22;17407;51.120;3.702;2022-12-29T11:03:15;11.10;99.90
25688;DHT22;17407;51.120;3.702;2022-12-29T11:05:56;11.20;99.90
25688;DHT22;17407;51.120;3.702;2022-12-29T11:08:30;11.20;99.90
25688;DHT22;17407;51.120;3.702;2022-12-29T11:11:00;11.10;99.90
25688;DHT22;17407;51.120;3.702;2022-12-29T11:13:29;11.20;99.90
25688;DHT22;17407;51.120;3.702;2022-12-29T11:15:55;11.10;99.90
25688;DHT22;17407;51.120;3.702;2022-12-29T11:18:33;11.00;99.90
25688;DHT22;17407;51.120;3.702;2022-12-29T11:21:01;10.90;99.90
25688;DHT22;17407;51.120;3.702;2022-12-29T11:23:34;11.00;99.90
25688;DHT22;17407;51.120;3.702;2022-12-29T11:26:14;11.00;99.90
25688;DHT22;17407;51.120;3.702;2022-12-29T11:28:43;11.10;99.90
25688;DHT22;17407;51.120;3.702;2022-12-29T11:31:09;11.20;99.90
25688;DHT22;17407;51.120;3.702;2022-12-29T11:33:36;11.20;99.90
25688;DHT22;17407;51.120;3.702;2022-12-29T11:36:08;11.30;99.90
25688;DHT22;17407;51.120;3.702;2022-12-29T11:38:41;11.20;99.90
25688;DHT22;17407;51.120;3.702;2022-12-29T11:41:12;11.10;99.90
25688;DHT22;17407;51.120;3.702;2022-12-29T11:43:41;11.10;99.90
25688;DHT22;17407;51.120;3.702;2022-12-29T11:46:16;11.00;99.90
25688;DHT22;17407;51.120;3.702;2022-12-29T11:48:43;10.90;99.90
25688;DHT22;17407;51.120;3.702;2022-12-29T11:51:10;11.00;99.90
25688;DHT22;17407;51.120;3.702;2022-12-29T11:53:47;11.00;99.90
25688;DHT22;17407;51.120;3.702;2022-12-29T11:56:16;10.90;99.90
25688;DHT22;17407;51.120;3.702;2022-12-29T11:58:43;10.80;99.90
25688;DHT22;17407;51.120;3.702;2022-12-29T12:01:38;10.80;99.90
25688;DHT22;17407;51.120;3.702;2022-12-29T12:04:13;10.60;99.90
25688;DHT22;17407;51.120;3.702;2022-12-29T12:07:00;10.60;99.90
25688;DHT22;17407;51.120;3.702;2022-12-29T12:09:56;10.60;99.90
25688;DHT22;17407;51.120;3.702;2022-12-29T12:12:44;10.60;99.90
25688;DHT22;17407;51.120;3.702;2022-12-29T12:15:39;10.70;99.90
25688;DHT22;17407;51.120;3.702;2022-12-29T12:18:30;10.80;99.90
25688;DHT22;17407;51.120;3.702;2022-12-29T12:21:05;10.70;99.90
25688;DHT22;17407;51.120;3.702;2022-12-29T12:26:16;10.70;99.90
25688;DHT22;17407;51.120;3.702;2022-12-29T12:28:52;10.70;99.90
25688;DHT22;17407;51.120;3.702;2022-12-29T12:34:37;10.80;99.90
25688;DHT22;17407;51.120;3.702;2022-12-29T12:37:24;11.00;99.90
25688;DHT22;17407;51.120;3.702;2022-12-29T12:42:51;10.90;99.90
25688;DHT22;17407;51.120;3.702;2022-12-29T12:45:55;11.00;99.90
25688;DHT22;17407;51.120;3.702;2022-12-29T12:48:55;11.00;99.90
25688;DHT22;17407;51.120;3.702;2022-12-29T13:07:32;10.80;99.90
25688;DHT22;17407;51.120;3.702;2022-12-29T13:26:32;10.80;99.90
25688;DHT22;17407;51.120;3.702;2022-12-29T13:29:13;10.60;99.90
25688;DHT22;17407;51.120;3.702;2022-12-29T13:37:39;10.40;99.90
25688;DHT22;17407;51.120;3.702;2022-12-29T13:40:19;10.30;99.90
25688;DHT22;17407;51.120;3.702;2022-12-29T13:42:47;10.30;99.90
25688;DHT22;17407;51.120;3.702;2022-12-29T13:45:22;10.20;99.90
25688;DHT22;17407;51.120;3.702;2022-12-29T13:48:03;10.30;99.90
25688;DHT22;17407;51.120;3.702;2022-12-29T13:50:36;10.30;99.90
25688;DHT22;17407;51.120;3.702;2022-12-29T13:53:11;10.30;99.90
25688;DHT22;17407;51.120;3.702;2022-12-29T13:55:54;10.30;99.90
25688;DHT22;17407;51.120;3.702;2022-12-29T13:58:36;10.40;99.90
25688;DHT22;17407;51.120;3.702;2022-12-29T14:01:22;10.40;99.90
25688;DHT22;17407;51.120;3.702;2022-12-29T14:03:54;10.30;99.90
25688;DHT22;17407;51.120;3.702;2022-12-29T14:06:34;10.40;99.90
25688;DHT22;17407;51.120;3.702;2022-12-29T14:09:34;10.30;99.90
25688;DHT22;17407;51.120;3.702;2022-12-29T14:11:52;10.30;99.90
25688;DHT22;17407;51.120;3.702;2022-12-29T14:14:27;10.10;99.90
25688;DHT22;17407;51.120;3.702;2022-12-29T14:16:54;10.10;99.90
25688;DHT22;17407;51.120;3.702;2022-12-29T14:19:31;10.00;99.90
25688;DHT22;17407;51.120;3.702;2022-12-29T14:22:02;10.00;99.90
25688;DHT22;17407;51.120;3.702;2022-12-29T14:27:01;10.00;99.90
25688;DHT22;17407;51.120;3.702;2022-12-29T14:29:50;10.20;99.90
25688;DHT22;17407;51.120;3.702;2022-12-29T14:38:23;10.70;99.90
25688;DHT22;17407;51.120;3.702;2022-12-29T14:40:49;10.80;99.90
25688;DHT22;17407;51.120;3.702;2022-12-29T14:43:33;11.00;99.90
25688;DHT22;17407;51.120;3.702;2022-12-29T14:46:01;11.00;99.90
25688;DHT22;17407;51.120;3.702;2022-12-29T14:48:35;10.90;99.90
25688;DHT22;17407;51.120;3.702;2022-12-29T14:51:02;10.80;99.90
25688;DHT22;17407;51.120;3.702;2022-12-29T14:53:49;10.80;99.90
25688;DHT22;17407;51.120;3.702;2022-12-29T14:56:18;10.60;99.90
25688;DHT22;17407;51.120;3.702;2022-12-29T14:59:08;10.60;99.90
25688;DHT22;17407;51.120;3.702;2022-12-29T15:01:47;10.60;99.90
25688;DHT22;17407;51.120;3.702;2022-12-29T15:04:20;10.40;99.90
25688;DHT22;17407;51.120;3.702;2022-12-29T15:06:48;10.30;99.90
25688;DHT22;17407;51.120;3.702;2022-12-29T15:12:20;10.10;99.90
25688;DHT22;17407;51.120;3.702;2022-12-29T15:14:53;10.00;99.90
25688;DHT22;17407;51.120;3.702;2022-12-29T15:17:29;10.10;99.90
25688;DHT22;17407;51.120;3.702;2022-12-29T15:19:57;10.10;99.90
25688;DHT22;17407;51.120;3.702;2022-12-29T15:22:23;10.20;99.90
25688;DHT22;17407;51.120;3.702;2022-12-29T15:24:54;10.10;99.90
25688;DHT22;17407;51.120;3.702;2022-12-29T15:27:23;10.10;99.90
25688;DHT22;17407;51.120;3.702;2022-12-29T15:29:57;10.10;99.90
25688;DHT22;17407;51.120;3.702;2022-12-29T15:32:25;10.20;99.90
25688;DHT22;17407;51.120;3.702;2022-12-29T15:34:54;10.20;99.90
25688;DHT22;17407;51.120;3.702;2022-12-29T15:37:26;10.10;99.90
25688;DHT22;17407;51.120;3.702;2022-12-29T15:39:53;9.90;99.90
25688;DHT22;17407;51.120;3.702;2022-12-29T15:44:57;9.90;99.90
25688;DHT22;17407;51.120;3.702;2022-12-29T15:47:25;9.80;99.90
25688;DHT22;17407;51.120;3.702;2022-12-29T15:50:01;9.90;99.90
25688;DHT22;17407;51.120;3.702;2022-12-29T15:52:29;9.90;99.90
25688;DHT22;17407;51.120;3.702;2022-12-29T15:54:58;9.70;99.90
25688;DHT22;17407;51.120;3.702;2022-12-29T15:57:27;9.70;99.90
25688;DHT22;17407;51.120;3.702;2022-12-29T15:59:53;9.80;99.90
25688;DHT22;17407;51.120;3.702;2022-12-29T16:02:22;9.60;99.90
25688;DHT22;17407;51.120;3.702;2022-12-29T16:04:48;9.60;99.90
25688;DHT22;17407;51.120;3.702;2022-12-29T16:07:30;9.60;99.90
25688;DHT22;17407;51.120;3.702;2022-12-29T16:09:57;9.60;99.90
25688;DHT22;17407;51.120;3.702;2022-12-29T16:12:32;9.50;99.90
25688;DHT22;17407;51.120;3.702;2022-12-29T16:15:00;9.50;99.90
25688;DHT22;17407;51.120;3.702;2022-12-29T16:17:29;9.40;99.90
25688;DHT22;17407;51.120;3.702;2022-12-29T16:20:03;9.40;99.90
25688;DHT22;17407;51.120;3.702;2022-12-29T16:22:36;9.40;99.90
25688;DHT22;17407;51.120;3.702;2022-12-29T16:25:16;9.30;99.90
25688;DHT22;17407;51.120;3.702;2022-12-29T16:27:45;9.30;99.90
25688;DHT22;17407;51.120;3.702;2022-12-29T16:30:24;9.40;99.90
25688;DHT22;17407;51.120;3.702;2022-12-29T16:32:53;9.40;99.90
25688;DHT22;17407;51.120;3.702;2022-12-29T16:35:20;9.30;99.90
25688;DHT22;17407;51.120;3.702;2022-12-29T16:37:47;9.40;99.90
25688;DHT22;17407;51.120;3.702;2022-12-29T16:40:24;9.30;99.90
25688;DHT22;17407;51.120;3.702;2022-12-29T16:42:55;9.20;99.90
25688;DHT22;17407;51.120;3.702;2022-12-29T16:48:09;9.20;99.90
25688;DHT22;17407;51.120;3.702;2022-12-29T16:50:41;9.20;99.90
25688;DHT22;17407;51.120;3.702;2022-12-29T16:53:23;9.10;99.90
25688;DHT22;17407;51.120;3.702;2022-12-29T16:55:51;9.30;99.90
25688;DHT22;17407;51.120;3.702;2022-12-29T16:58:24;9.30;99.90
25688;DHT22;17407;51.120;3.702;2022-12-29T17:00:55;9.20;99.90
25688;DHT22;17407;51.120;3.702;2022-12-29T17:03:24;9.20;99.90
25688;DHT22;17407;51.120;3.702;2022-12-29T17:05:51;9.30;99.90
25688;DHT22;17407;51.120;3.702;2022-12-29T17:08:19;9.30;99.90
25688;DHT22;17407;51.120;3.702;2022-12-29T17:10:53;9.30;99.90
25688;DHT22;17407;51.120;3.702;2022-12-29T17:13:38;9.30;99.90
25688;DHT22;17407;51.120;3.702;2022-12-29T17:16:05;9.20;99.90
25688;DHT22;17407;51.120;3.702;2022-12-29T17:18:33;9.10;99.90
25688;DHT22;17407;51.120;3.702;2022-12-29T17:20:59;9.10;99.90
25688;DHT22;17407;51.120;3.702;2022-12-29T17:23:24;9.30;99.90
25688;DHT22;17407;51.120;3.702;2022-12-29T17:25:51;9.40;99.90
25688;DHT22;17407;51.120;3.702;2022-12-29T17:28:21;9.30;99.90
25688;DHT22;17407;51.120;3.702;2022-12-29T17:30:48;9.40;99.90
25688;DHT22;17407;51.120;3.702;2022-12-29T17:33:16;9.30;99.90
25688;DHT22;17407;51.120;3.702;2022-12-29T17:35:43;9.50;99.90
25688;DHT22;17407;51.120;3.702;2022-12-29T17:40:43;9.40;99.90
25688;DHT22;17407;51.120;3.702;2022-12-29T17:43:12;9.30;99.90
25688;DHT22;17407;51.120;3.702;2022-12-29T17:45:38;9.40;99.90
25688;DHT22;17407;51.120;3.702;2022-12-29T17:48:11;9.40;99.90
25688;DHT22;17407;51.120;3.702;2022-12-29T17:50:37;9.40;99.90